Time;durP1;ratioP1;P1;durP2;ratioP2;P2;SDS_P1;SDS_P2;PMS_P1;PMS_P2;Temp;Humidity;BMP_temperature;BMP_pressure;BME280_temperature;BME280_humidity;BME280_pressure;Samples;Min_cycle;Max_cycle;Signal;HPM_P1;HPM_P2
2023/08/28 00:00:31;;;;;;;;;;;;;;;26.46;40.54;99794.69;5072959;28;19959;-65
2023/08/28 00:02:56;;;;;;;;;;;;;;;26.48;40.81;99805.41;5072726;28;20280;-65
2023/08/28 00:05:21;;;;;;;;;;;;;;;26.46;40.65;99797.47;5072786;28;19919;-65
2023/08/28 00:07:47;;;;;;;;;;;;;;;26.50;40.16;99788.56;5072862;28;19912;-65
2023/08/28 00:10:12;;;;;;;;;;;;;;;26.51;40.57;99795.72;5072797;28;19919;-65
2023/08/28 00:12:40;;;;;;;;;;;;;;;26.50;40.59;99799.59;5073036;28;19912;-65
2023/08/28 00:15:09;;;;;;;;;;;;;;;26.54;40.50;99804.16;5072619;28;19916;-65
2023/08/28 00:17:36;;;;;;;;;;;;;;;26.56;40.44;99803.81;5072792;28;19916;-65
2023/08/28 00:20:02;;;;;;;;;;;;;;;26.59;40.68;99789.41;5072707;28;19923;-65
2023/08/28 00:22:28;;;;;;;;;;;;;;;26.50;39.95;99802.34;5072074;28;20366;-64
2023/08/28 00:24:53;;;;;;;;;;;;;;;26.44;39.55;99796.97;5072091;28;19916;-65
2023/08/28 00:27:18;;;;;;;;;;;;;;;26.35;39.54;99798.84;5072332;28;19913;-65
2023/08/28 00:29:44;;;;;;;;;;;;;;;26.27;39.92;99802.38;5072174;28;19952;-65
2023/08/28 00:32:09;;;;;;;;;;;;;;;26.12;40.29;99797.28;5072912;28;19991;-65
2023/08/28 00:34:34;;;;;;;;;;;;;;;26.14;39.38;99792.28;5073180;28;19920;-65
2023/08/28 00:36:59;;;;;;;;;;;;;;;26.22;40.55;99795.06;5072387;28;19917;-65
2023/08/28 00:39:25;;;;;;;;;;;;;;;26.24;39.82;99795.59;5072739;28;19952;-65
2023/08/28 00:41:50;;;;;;;;;;;;;;;26.26;40.48;99798.84;5072912;28;20005;-65
2023/08/28 00:44:15;;;;;;;;;;;;;;;26.17;40.31;99797.13;5072533;28;20597;-65
2023/08/28 00:46:41;;;;;;;;;;;;;;;26.12;40.44;99794.53;5072581;28;19916;-66
2023/08/28 00:49:06;;;;;;;;;;;;;;;26.14;40.51;99790.34;5072584;28;19948;-66
2023/08/28 00:51:32;;;;;;;;;;;;;;;26.11;40.23;99788.19;5072531;28;19912;-66
2023/08/28 00:53:58;;;;;;;;;;;;;;;26.12;40.76;99791.78;5071273;28;20312;-65
2023/08/28 00:56:23;;;;;;;;;;;;;;;26.07;39.95;99785.25;5071991;28;19916;-66
2023/08/28 00:58:49;;;;;;;;;;;;;;;25.99;40.42;99780.53;5072085;28;19913;-65
2023/08/28 01:01:14;;;;;;;;;;;;;;;26.03;40.81;99786.22;5071632;28;19923;-65
2023/08/28 01:03:39;;;;;;;;;;;;;;;26.07;40.71;99790.75;5072102;28;19920;-65
2023/08/28 01:06:05;;;;;;;;;;;;;;;26.11;40.83;99788.19;5071976;28;20285;-65
2023/08/28 01:08:36;;;;;;;;;;;;;;;26.06;40.53;99789.16;5072124;28;19955;-65
2023/08/28 01:11:13;;;;;;;;;;;;;;;26.10;40.80;99785.78;5072445;28;19969;-65
2023/08/28 01:13:45;;;;;;;;;;;;;;;26.14;40.33;99786.78;5072518;28;19951;-65
2023/08/28 01:16:10;;;;;;;;;;;;;;;26.17;40.76;99791.63;5072108;28;20077;-66
2023/08/28 01:18:36;;;;;;;;;;;;;;;26.20;40.65;99780.00;5071971;28;20280;-65
2023/08/28 01:21:01;;;;;;;;;;;;;;;26.18;40.96;99780.31;5072203;28;20361;-65
2023/08/28 01:23:31;;;;;;;;;;;;;;;26.15;40.44;99788.38;5071793;28;19916;-65
2023/08/28 01:25:57;;;;;;;;;;;;;;;26.11;40.42;99787.38;5072004;28;20323;-65
2023/08/28 01:28:24;;;;;;;;;;;;;;;26.07;40.67;99793.50;5072293;28;19920;-65
2023/08/28 01:30:51;;;;;;;;;;;;;;;25.98;40.26;99795.41;5072094;28;20341;-65
2023/08/28 01:33:16;;;;;;;;;;;;;;;25.83;40.47;99790.25;5071834;28;19920;-65
2023/08/28 01:35:42;;;;;;;;;;;;;;;25.87;40.41;99800.34;5076023;28;20349;-65
2023/08/28 01:38:13;;;;;;;;;;;;;;;25.87;40.60;99794.00;5075574;28;20441;-65
2023/08/28 01:40:46;;;;;;;;;;;;;;;25.90;40.42;99793.38;5075794;28;19919;-65
2023/08/28 01:43:14;;;;;;;;;;;;;;;25.92;40.18;99799.41;5075204;28;20019;-66
2023/08/28 01:45:40;;;;;;;;;;;;;;;25.88;39.92;99793.69;5075466;28;19919;-66
2023/08/28 01:48:05;;;;;;;;;;;;;;;25.87;39.48;99802.25;5075247;28;19913;-66
2023/08/28 01:50:31;;;;;;;;;;;;;;;25.92;39.88;99795.81;5074480;28;19917;-66
2023/08/28 01:52:56;;;;;;;;;;;;;;;25.93;40.13;99798.28;5075032;28;19959;-66
2023/08/28 01:55:40;;;;;;;;;;;;;;;25.81;39.67;99792.50;5074288;28;19919;-66
2023/08/28 01:58:05;;;;;;;;;;;;;;;25.75;40.03;99797.31;5074781;28;19916;-65
2023/08/28 02:00:31;;;;;;;;;;;;;;;25.69;40.42;99798.56;5074813;28;20365;-66
2023/08/28 02:02:56;;;;;;;;;;;;;;;25.60;40.36;99801.25;5069532;28;19973;-66
2023/08/28 02:05:21;;;;;;;;;;;;;;;25.58;40.20;99799.94;5075483;28;19916;-65
2023/08/28 02:07:47;;;;;;;;;;;;;;;25.63;40.44;99786.03;5075642;28;19916;-65
2023/08/28 02:10:12;;;;;;;;;;;;;;;25.62;39.80;99782.50;5075701;28;19937;-66
2023/08/28 02:12:37;;;;;;;;;;;;;;;25.66;40.60;99791.72;5074780;28;20402;-66
2023/08/28 02:15:03;;;;;;;;;;;;;;;25.78;40.49;99787.63;5074419;28;19964;-66
2023/08/28 02:17:28;;;;;;;;;;;;;;;25.77;39.88;99786.81;5074586;28;20269;-65
2023/08/28 02:19:53;;;;;;;;;;;;;;;25.80;40.58;99786.19;5074430;28;20008;-65
2023/08/28 02:22:18;;;;;;;;;;;;;;;25.80;40.15;99790.91;5074135;28;20297;-66
2023/08/28 02:24:44;;;;;;;;;;;;;;;25.83;40.68;99790.25;5074498;28;19966;-66
2023/08/28 02:27:09;;;;;;;;;;;;;;;25.74;39.95;99792.13;5074528;28;19948;-65
2023/08/28 02:29:34;;;;;;;;;;;;;;;25.76;40.83;99789.88;5074258;28;20003;-65
2023/08/28 02:32:00;;;;;;;;;;;;;;;25.79;40.26;99795.56;5074634;28;19912;-65
2023/08/28 02:34:25;;;;;;;;;;;;;;;25.63;40.09;99786.03;5074424;28;19912;-65
2023/08/28 02:36:50;;;;;;;;;;;;;;;25.44;40.13;99797.22;5074422;28;19920;-65
2023/08/28 02:39:16;;;;;;;;;;;;;;;25.43;40.09;99790.91;5074076;28;19916;-65
2023/08/28 02:41:41;;;;;;;;;;;;;;;25.45;40.06;99785.91;5074539;28;19925;-65
2023/08/28 02:44:06;;;;;;;;;;;;;;;25.46;40.62;99778.47;5074277;28;20380;-65
2023/08/28 02:46:31;;;;;;;;;;;;;;;25.45;40.23;99785.91;5073731;28;19912;-66
2023/08/28 02:48:57;;;;;;;;;;;;;;;25.56;40.58;99777.44;5074408;28;20000;-66
2023/08/28 02:51:22;;;;;;;;;;;;;;;25.56;40.01;99783.75;5074190;28;20007;-66
2023/08/28 02:53:47;;;;;;;;;;;;;;;25.48;40.02;99787.22;5073443;28;19927;-66
2023/08/28 02:56:24;;;;;;;;;;;;;;;25.39;40.06;99784.41;5056099;28;19916;-66
2023/08/28 02:58:50;;;;;;;;;;;;;;;25.47;40.99;99791.91;5074001;28;19919;-66
2023/08/28 03:01:17;;;;;;;;;;;;;;;25.49;40.99;99780.59;5073689;28;19917;-66
2023/08/28 03:03:42;;;;;;;;;;;;;;;25.43;40.91;99781.84;5073644;28;19921;-66
2023/08/28 03:06:08;;;;;;;;;;;;;;;25.50;40.80;99782.22;5074077;28;19912;-66
2023/08/28 03:08:33;;;;;;;;;;;;;;;25.52;40.76;99784.66;5074071;28;19920;-66
2023/08/28 03:10:58;;;;;;;;;;;;;;;25.48;40.99;99785.31;5073828;28;19913;-65
2023/08/28 03:13:23;;;;;;;;;;;;;;;25.51;40.96;99789.34;5073938;28;19912;-66
2023/08/28 03:15:49;;;;;;;;;;;;;;;25.53;40.73;99780.78;5073986;28;20422;-66
2023/08/28 03:18:14;;;;;;;;;;;;;;;25.48;40.60;99779.81;5073463;28;20011;-66
2023/08/28 03:20:41;;;;;;;;;;;;;;;25.39;40.28;99775.31;5073350;28;19919;-66
2023/08/28 03:23:09;;;;;;;;;;;;;;;25.39;40.79;99776.16;5073495;28;20003;-65
2023/08/28 03:25:37;;;;;;;;;;;;;;;25.32;40.87;99767.53;5073567;28;19916;-66
2023/08/28 03:28:07;;;;;;;;;;;;;;;25.39;41.14;99767.91;5073438;28;20364;-66
2023/08/28 03:30:32;;;;;;;;;;;;;;;25.40;40.84;99772.28;5073490;28;20426;-66
2023/08/28 03:32:57;;;;;;;;;;;;;;;25.35;40.26;99768.81;5073372;28;19912;-66
2023/08/28 03:35:22;;;;;;;;;;;;;;;25.13;40.87;99770.38;5073200;28;19913;-66
2023/08/28 03:37:48;;;;;;;;;;;;;;;24.91;40.72;99758.19;5073281;28;20295;-65
2023/08/28 03:40:13;;;;;;;;;;;;;;;24.80;41.05;99762.28;5072913;28;20347;-65
2023/08/28 03:42:38;;;;;;;;;;;;;;;24.86;41.37;99758.28;5072999;28;19917;-65
2023/08/28 03:45:04;;;;;;;;;;;;;;;24.85;41.60;99767.66;5073111;28;19913;-65
2023/08/28 03:47:29;;;;;;;;;;;;;;;24.76;40.63;99766.75;5055396;28;19913;-65
2023/08/28 03:49:54;;;;;;;;;;;;;;;24.76;41.54;99765.94;5073274;28;20249;-65
2023/08/28 03:52:20;;;;;;;;;;;;;;;24.75;41.68;99759.63;5072815;28;19951;-65
2023/08/28 03:54:45;;;;;;;;;;;;;;;24.69;41.50;99764.41;5071247;28;19926;-65
2023/08/28 03:57:10;;;;;;;;;;;;;;;24.67;41.35;99766.66;5071703;28;19920;-65
2023/08/28 03:59:36;;;;;;;;;;;;;;;24.73;41.72;99770.91;5072705;28;19912;-65
2023/08/28 04:02:03;;;;;;;;;;;;;;;24.70;41.90;99767.97;5065252;28;20015;-65
2023/08/28 04:04:28;;;;;;;;;;;;;;;24.71;41.47;99775.91;5052573;28;19932;-65
2023/08/28 04:06:53;;;;;;;;;;;;;;;24.77;41.27;99764.81;5052824;28;19913;-65
2023/08/28 04:09:20;;;;;;;;;;;;;;;24.76;41.22;99764.00;5052830;28;20413;-66
2023/08/28 04:11:45;;;;;;;;;;;;;;;24.83;41.55;99764.41;5052817;28;20281;-66
2023/08/28 04:14:10;;;;;;;;;;;;;;;24.89;41.64;99773.38;5058955;28;20011;-66
2023/08/28 04:16:37;;;;;;;;;;;;;;;24.85;41.80;99762.19;5073149;28;19916;-66
2023/08/28 04:19:02;;;;;;;;;;;;;;;24.93;41.30;99768.88;5072835;28;19912;-66
2023/08/28 04:21:27;;;;;;;;;;;;;;;24.99;40.79;99761.34;5066928;28;19994;-66
2023/08/28 04:23:53;;;;;;;;;;;;;;;24.88;41.46;99764.28;5034983;28;19940;-65
2023/08/28 04:26:18;;;;;;;;;;;;;;;25.02;41.74;99764.28;5056136;28;19916;-64
2023/08/28 04:28:43;;;;;;;;;;;;;;;24.93;41.88;99769.69;5072680;28;19969;-64
2023/08/28 04:31:09;;;;;;;;;;;;;;;24.86;40.93;99769.28;5072413;28;19918;-64
2023/08/28 04:33:34;;;;;;;;;;;;;;;25.03;41.84;99768.66;5072533;28;19913;-64
2023/08/28 04:36:00;;;;;;;;;;;;;;;24.99;40.87;99766.84;5072441;28;20361;-64
2023/08/28 04:38:25;;;;;;;;;;;;;;;24.76;41.59;99772.25;5072478;28;19913;-64
2023/08/28 04:40:50;;;;;;;;;;;;;;;24.83;41.39;99771.81;5072457;28;20468;-64
2023/08/28 04:43:16;;;;;;;;;;;;;;;24.88;41.31;99771.72;5072172;28;20314;-64
2023/08/28 04:45:41;;;;;;;;;;;;;;;24.76;41.58;99777.75;5072413;28;20011;-64
2023/08/28 04:48:06;;;;;;;;;;;;;;;24.77;41.14;99784.03;5072334;28;19912;-64
2023/08/28 04:50:32;;;;;;;;;;;;;;;24.81;40.89;99776.81;5072234;28;19912;-64
2023/08/28 04:52:57;;;;;;;;;;;;;;;24.80;41.22;99766.97;5072218;28;20383;-64
2023/08/28 04:55:22;;;;;;;;;;;;;;;24.82;41.36;99779.25;5071251;28;20391;-64
2023/08/28 04:57:47;;;;;;;;;;;;;;;24.90;41.34;99773.03;5072089;28;20007;-64
2023/08/28 05:00:13;;;;;;;;;;;;;;;25.03;41.24;99785.13;5072061;28;19920;-64
2023/08/28 05:02:38;;;;;;;;;;;;;;;25.01;41.25;99783.81;5071948;28;19917;-64
2023/08/28 05:05:04;;;;;;;;;;;;;;;25.10;40.59;99785.53;5072437;28;20397;-64
2023/08/28 05:07:29;;;;;;;;;;;;;;;25.12;40.88;99782.50;5072110;28;19913;-64
2023/08/28 05:09:54;;;;;;;;;;;;;;;25.09;41.04;99783.94;5074741;28;20437;-64
2023/08/28 05:12:20;;;;;;;;;;;;;;;25.09;40.91;99783.09;5076293;28;20008;-64
2023/08/28 05:14:45;;;;;;;;;;;;;;;25.10;40.66;99785.53;5076270;28;20369;-64
2023/08/28 05:17:10;;;;;;;;;;;;;;;25.15;40.53;99803.03;5075728;28;20417;-64
2023/08/28 05:19:35;;;;;;;;;;;;;;;25.17;40.23;99798.88;5074442;28;19952;-64
2023/08/28 05:22:01;;;;;;;;;;;;;;;25.14;41.04;99791.22;5075902;28;19938;-64
2023/08/28 05:24:26;;;;;;;;;;;;;;;25.16;39.51;99797.22;5074483;28;19916;-64
2023/08/28 05:26:52;;;;;;;;;;;;;;;25.20;40.96;99797.44;5074351;28;20346;-64
2023/08/28 05:29:17;;;;;;;;;;;;;;;25.33;40.81;99791.13;5075650;28;19930;-64
2023/08/28 05:31:42;;;;;;;;;;;;;;;25.45;40.23;99796.09;5075831;28;20012;-64
2023/08/28 05:34:08;;;;;;;;;;;;;;;25.29;40.08;99796.41;5075656;28;19912;-64
2023/08/28 05:36:34;;;;;;;;;;;;;;;25.24;40.04;99795.72;5075607;28;20331;-64
2023/08/28 05:38:59;;;;;;;;;;;;;;;25.23;40.07;99792.16;5075868;28;19916;-64
2023/08/28 05:41:24;;;;;;;;;;;;;;;25.29;40.60;99788.16;5075257;28;20368;-64
2023/08/28 05:43:50;;;;;;;;;;;;;;;25.29;40.13;99798.38;5075485;28;19943;-65
2023/08/28 05:46:15;;;;;;;;;;;;;;;25.21;40.41;99799.88;5075670;28;19961;-65
2023/08/28 05:48:40;;;;;;;;;;;;;;;25.37;40.19;99794.06;5075354;28;19913;-65
2023/08/28 05:51:05;;;;;;;;;;;;;;;25.36;39.99;99793.25;5071956;28;19913;-64
2023/08/28 05:53:31;;;;;;;;;;;;;;;25.46;39.69;99794.97;5067725;28;19920;-65
2023/08/28 05:55:56;;;;;;;;;;;;;;;25.54;40.03;99802.50;5074366;28;19912;-65
2023/08/28 05:58:21;;;;;;;;;;;;;;;25.54;39.21;99804.41;5075330;28;20077;-64
2023/08/28 06:00:47;;;;;;;;;;;;;;;25.52;39.23;99806.66;5075133;28;19912;-64
2023/08/28 06:03:12;;;;;;;;;;;;;;;25.56;39.50;99803.00;5074640;28;19985;-65
2023/08/28 06:05:38;;;;;;;;;;;;;;;25.52;39.35;99807.50;5075072;28;19917;-65
2023/08/28 06:08:03;;;;;;;;;;;;;;;25.33;40.06;99804.88;5074915;28;20286;-65
2023/08/28 06:10:29;;;;;;;;;;;;;;;25.41;39.49;99811.59;5075002;28;19962;-64
2023/08/28 06:12:54;;;;;;;;;;;;;;;25.64;40.09;99809.69;5075129;28;19912;-64
2023/08/28 06:15:19;;;;;;;;;;;;;;;25.63;39.75;99813.53;5074691;28;19916;-65
2023/08/28 06:17:50;;;;;;;;;;;;;;;25.55;39.79;99809.59;5075057;28;19912;-64
2023/08/28 06:20:16;;;;;;;;;;;;;;;25.53;38.73;99817.34;5073425;28;20592;-65
2023/08/28 06:22:42;;;;;;;;;;;;;;;25.67;39.51;99818.13;5074120;28;19920;-65
2023/08/28 06:25:08;;;;;;;;;;;;;;;25.87;38.44;99819.59;5074742;28;19916;-64
2023/08/28 06:27:33;;;;;;;;;;;;;;;25.87;39.20;99821.50;5074708;28;19947;-65
2023/08/28 06:29:58;;;;;;;;;;;;;;;25.82;39.28;99818.91;5074652;28;19957;-65
2023/08/28 06:32:24;;;;;;;;;;;;;;;25.88;39.25;99823.16;5074222;28;20285;-65
2023/08/28 06:34:49;;;;;;;;;;;;;;;25.92;39.34;99824.16;5074006;28;20024;-65
2023/08/28 06:37:14;;;;;;;;;;;;;;;26.11;39.22;99828.69;5074093;28;19962;-65
2023/08/28 06:39:40;;;;;;;;;;;;;;;26.17;39.30;99827.41;5074626;28;19912;-65
2023/08/28 06:42:05;;;;;;;;;;;;;;;25.84;38.70;99833.97;5074203;28;19986;-65
2023/08/28 06:44:30;;;;;;;;;;;;;;;25.82;39.19;99822.44;5074221;28;19951;-65
2023/08/28 06:46:56;;;;;;;;;;;;;;;25.83;39.46;99837.00;5074154;28;19912;-65
2023/08/28 06:49:21;;;;;;;;;;;;;;;25.83;39.20;99835.06;5074191;28;19916;-64
2023/08/28 06:51:46;;;;;;;;;;;;;;;25.89;39.44;99831.09;5074165;28;19912;-65
2023/08/28 06:54:12;;;;;;;;;;;;;;;26.03;39.20;99833.81;5073602;28;20015;-65
2023/08/28 06:56:37;;;;;;;;;;;;;;;26.08;39.13;99825.44;5073126;28;19958;-65
2023/08/28 06:59:02;;;;;;;;;;;;;;;26.12;39.18;99833.06;5072693;28;19966;-64
2023/08/28 07:01:27;;;;;;;;;;;;;;;26.17;38.81;99835.66;5072178;28;19928;-65
2023/08/28 07:03:53;;;;;;;;;;;;;;;26.19;38.71;99831.50;5083875;28;19920;-64
2023/08/28 07:06:18;;;;;;;;;;;;;;;26.20;39.17;99826.78;5092459;28;19912;-65
2023/08/28 07:08:44;;;;;;;;;;;;;;;26.34;39.63;99835.00;5092984;28;19912;-65
2023/08/28 07:11:09;;;;;;;;;;;;;;;26.49;39.14;99836.53;5076544;28;19993;-65
2023/08/28 07:13:34;;;;;;;;;;;;;;;26.57;38.58;99836.56;5073092;28;19967;-65
2023/08/28 07:16:00;;;;;;;;;;;;;;;26.56;38.42;99834.94;5073331;28;19923;-65
2023/08/28 07:18:25;;;;;;;;;;;;;;;26.62;38.04;99833.69;5073290;28;19994;-65
2023/08/28 07:20:51;;;;;;;;;;;;;;;26.52;38.46;99839.44;5073103;28;19913;-65
2023/08/28 07:23:18;;;;;;;;;;;;;;;26.52;38.00;99838.63;5074106;28;19966;-64
2023/08/28 07:25:44;;;;;;;;;;;;;;;26.59;37.58;99833.50;5073558;28;20365;-65
2023/08/28 07:28:10;;;;;;;;;;;;;;;26.60;37.69;99837.91;5073270;28;20459;-64
2023/08/28 07:30:36;;;;;;;;;;;;;;;26.72;38.00;99838.13;5073554;28;19924;-65
2023/08/28 07:33:04;;;;;;;;;;;;;;;26.79;38.14;99835.72;5073660;28;20274;-64
2023/08/28 07:35:34;;;;;;;;;;;;;;;26.94;38.61;99834.47;5073523;28;19963;-64
2023/08/28 07:38:02;;;;;;;;;;;;;;;27.01;37.73;99834.03;5073707;28;19913;-64
2023/08/28 07:40:27;;;;;;;;;;;;;;;26.74;36.70;99837.81;5055153;28;19920;-64
2023/08/28 07:42:52;;;;;;;;;;;;;;;26.77;36.79;99835.22;5072803;28;19916;-64
2023/08/28 07:45:17;;;;;;;;;;;;;;;26.90;37.37;99841.75;5054931;28;19999;-64
2023/08/28 07:47:43;;;;;;;;;;;;;;;26.80;36.91;99834.59;5072865;28;20482;-65
2023/08/28 07:50:08;;;;;;;;;;;;;;;26.85;36.66;99831.69;5072780;28;19912;-64
2023/08/28 07:52:33;;;;;;;;;;;;;;;26.78;37.29;99828.59;5072732;28;20384;-64
2023/08/28 07:54:59;;;;;;;;;;;;;;;26.75;36.50;99833.94;5072048;28;19913;-64
2023/08/28 07:57:24;;;;;;;;;;;;;;;26.90;37.70;99830.75;5072902;28;19958;-66
2023/08/28 07:59:49;;;;;;;;;;;;;;;27.07;37.47;99829.19;5083870;28;19916;-64
2023/08/28 08:02:14;;;;;;;;;;;;;;;27.10;36.75;99818.31;5083478;28;19952;-64
2023/08/28 08:04:40;;;;;;;;;;;;;;;27.13;36.20;99825.13;5072639;28;20304;-64
2023/08/28 08:07:05;;;;;;;;;;;;;;;27.29;36.48;99825.53;5064570;28;19917;-65
2023/08/28 08:09:30;;;;;;;;;;;;;;;27.38;36.79;99829.91;5073087;28;19912;-64
2023/08/28 08:11:56;;;;;;;;;;;;;;;27.62;36.19;99823.13;5072867;28;20446;-64
2023/08/28 08:14:22;;;;;;;;;;;;;;;27.59;34.29;99827.34;5072337;28;19920;-64
2023/08/28 08:16:47;;;;;;;;;;;;;;;27.57;35.25;99815.81;5072540;28;19912;-64
2023/08/28 08:19:12;;;;;;;;;;;;;;;27.40;36.10;99822.13;5072680;28;19919;-64
2023/08/28 08:21:37;;;;;;;;;;;;;;;27.21;36.25;99821.59;5072560;28;19920;-64
2023/08/28 08:24:03;;;;;;;;;;;;;;;27.07;36.31;99824.47;5072761;28;19919;-65
2023/08/28 08:26:28;;;;;;;;;;;;;;;26.97;35.67;99822.03;5071831;28;19921;-65
2023/08/28 08:28:54;;;;;;;;;;;;;;;26.82;35.25;99826.81;5072424;28;19920;-65
2023/08/28 08:31:19;;;;;;;;;;;;;;;27.00;36.25;99822.16;5072995;28;19912;-65
2023/08/28 08:33:44;;;;;;;;;;;;;;;27.13;36.20;99814.91;5072510;28;20388;-65
2023/08/28 08:36:13;;;;;;;;;;;;;;;27.16;36.49;99819.78;5072856;28;20022;-64
2023/08/28 08:38:39;;;;;;;;;;;;;;;27.32;37.00;99809.16;5072935;28;20280;-65
2023/08/28 08:41:06;;;;;;;;;;;;;;;27.39;34.77;99814.19;5072679;28;19924;-65
2023/08/28 08:43:31;;;;;;;;;;;;;;;27.56;36.16;99816.13;5072927;28;19916;-65
2023/08/28 08:46:07;;;;;;;;;;;;;;;27.53;35.57;99822.31;5076777;28;19972;-65
2023/08/28 08:48:34;;;;;;;;;;;;;;;27.48;34.70;99816.94;5076604;28;19923;-65
2023/08/28 08:51:07;;;;;;;;;;;;;;;27.74;36.51;99811.44;5076355;28;19946;-65
2023/08/28 08:53:38;;;;;;;;;;;;;;;27.77;35.53;99808.03;5076541;28;20301;-65
2023/08/28 08:56:05;;;;;;;;;;;;;;;27.69;34.68;99809.69;5075889;28;20025;-64
2023/08/28 08:58:31;;;;;;;;;;;;;;;27.49;35.09;99813.03;5076927;28;20250;-64
2023/08/28 09:00:57;;;;;;;;;;;;;;;27.58;35.11;99820.22;5076224;28;19913;-63
2023/08/28 09:03:23;;;;;;;;;;;;;;;27.51;33.60;99816.31;5082980;28;19946;-64
2023/08/28 09:05:50;;;;;;;;;;;;;;;27.56;34.90;99810.63;5096806;28;20433;-65
2023/08/28 09:08:16;;;;;;;;;;;;;;;27.52;34.58;99815.16;5096464;28;19973;-65
2023/08/28 09:10:43;;;;;;;;;;;;;;;27.60;34.88;99808.88;5096462;28;19916;-64
2023/08/28 09:13:09;;;;;;;;;;;;;;;27.51;34.46;99814.38;5096424;28;19999;-64
2023/08/28 09:15:34;;;;;;;;;;;;;;;27.61;35.45;99816.78;5076815;28;20062;-64
2023/08/28 09:18:00;;;;;;;;;;;;;;;27.68;35.17;99815.50;5076031;28;19912;-64
2023/08/28 09:20:26;;;;;;;;;;;;;;;27.66;34.52;99809.50;5075952;28;19912;-64
2023/08/28 09:22:52;;;;;;;;;;;;;;;27.75;34.48;99816.66;5075758;28;20401;-64
2023/08/28 09:25:18;;;;;;;;;;;;;;;27.74;33.83;99819.72;5075852;28;19913;-64
2023/08/28 09:27:44;;;;;;;;;;;;;;;27.80;34.74;99818.41;5075925;28;19912;-64
2023/08/28 09:30:10;;;;;;;;;;;;;;;27.81;34.83;99823.59;5075738;28;19962;-64
2023/08/28 09:32:43;;;;;;;;;;;;;;;27.72;34.69;99822.00;5075718;28;19939;-64
2023/08/28 09:35:08;;;;;;;;;;;;;;;27.56;34.78;99816.97;5075675;28;19913;-64
2023/08/28 09:37:34;;;;;;;;;;;;;;;27.60;34.56;99817.13;5075744;28;19916;-64
2023/08/28 09:40:00;;;;;;;;;;;;;;;27.46;34.67;99819.22;5075529;28;19912;-64
2023/08/28 09:42:26;;;;;;;;;;;;;;;27.46;34.47;99814.50;5075295;28;19952;-65
2023/08/28 09:44:51;;;;;;;;;;;;;;;27.34;34.54;99814.31;5075505;28;20371;-65
2023/08/28 09:47:23;;;;;;;;;;;;;;;27.34;34.83;99814.31;5075118;28;19999;-64
2023/08/28 09:49:51;;;;;;;;;;;;;;;27.45;35.09;99809.31;5074993;28;20003;-65
2023/08/28 09:52:24;;;;;;;;;;;;;;;27.39;33.31;99812.22;5074913;28;19959;-65
2023/08/28 09:55:10;;;;;;;;;;;;;;;27.52;34.29;99809.66;5073801;28;20365;-65
2023/08/28 09:57:35;;;;;;;;;;;;;;;27.65;34.86;99802.34;5073769;28;19917;-65
2023/08/28 10:00:00;;;;;;;;;;;;;;;27.71;33.58;99810.16;5091694;28;19913;-65
2023/08/28 10:02:29;;;;;;;;;;;;;;;27.68;33.93;99812.75;5084213;28;20357;-65
2023/08/28 10:04:56;;;;;;;;;;;;;;;27.76;33.80;99815.50;5074799;28;20492;-65
2023/08/28 10:07:22;;;;;;;;;;;;;;;27.89;33.92;99804.63;5074843;28;19913;-66
2023/08/28 10:09:48;;;;;;;;;;;;;;;27.93;34.83;99813.88;5075046;28;19913;-65
2023/08/28 10:12:14;;;;;;;;;;;;;;;28.06;34.48;99804.63;5075078;28;19919;-65
2023/08/28 10:14:40;;;;;;;;;;;;;;;28.19;35.68;99809.16;5074967;28;20284;-65
2023/08/28 10:17:06;;;;;;;;;;;;;;;28.32;34.24;99814.78;5074667;28;19913;-65
2023/08/28 10:19:37;;;;;;;;;;;;;;;28.45;34.04;99810.22;5074772;28;19920;-65
2023/08/28 10:22:08;;;;;;;;;;;;;;;28.61;33.40;99805.00;5074793;28;19927;-65
2023/08/28 10:24:39;;;;;;;;;;;;;;;28.51;34.99;99808.88;5075003;28;19970;-64
2023/08/28 10:27:05;;;;;;;;;;;;;;;28.68;33.84;99806.09;5075076;28;20403;-65
2023/08/28 10:29:32;;;;;;;;;;;;;;;28.70;33.85;99801.06;5074516;28;19913;-65
2023/08/28 10:31:58;;;;;;;;;;;;;;;28.86;33.91;99806.84;5074548;28;19948;-65
2023/08/28 10:34:25;;;;;;;;;;;;;;;28.89;33.62;99805.34;5054605;28;19967;-65
2023/08/28 10:36:51;;;;;;;;;;;;;;;29.09;34.47;99798.25;5054528;28;19917;-65
2023/08/28 10:39:17;;;;;;;;;;;;;;;29.24;33.24;99800.47;5054296;28;19919;-65
2023/08/28 10:41:43;;;;;;;;;;;;;;;29.49;33.28;99795.91;5054577;28;19920;-66
2023/08/28 10:44:09;;;;;;;;;;;;;;;29.73;33.71;99791.63;5036760;28;19912;-66
2023/08/28 10:46:34;;;;;;;;;;;;;;;29.97;33.93;99785.38;5054444;28;19917;-66
2023/08/28 10:49:03;;;;;;;;;;;;;;;30.28;33.98;99784.09;5069023;28;19996;-66
2023/08/28 10:51:30;;;;;;;;;;;;;;;30.50;31.81;99788.44;5074051;28;19969;-66
2023/08/28 10:53:58;;;;;;;;;;;;;;;30.44;29.49;99789.78;5073381;28;20373;-66
2023/08/28 10:56:23;;;;;;;;;;;;;;;30.51;31.28;99786.47;5076708;28;20375;-66
2023/08/28 10:58:49;;;;;;;;;;;;;;;30.73;29.77;99779.66;5074033;28;19916;-66
2023/08/28 11:01:17;;;;;;;;;;;;;;;30.78;30.01;99785.78;5073640;28;20361;-66
2023/08/28 11:03:58;;;;;;;;;;;;;;;30.95;29.36;99792.28;5073671;28;20265;-66
2023/08/28 11:06:36;;;;;;;;;;;;;;;31.24;30.70;99788.41;5073463;28;20049;-66
2023/08/28 11:09:20;;;;;;;;;;;;;;;31.40;29.04;99792.09;5074144;28;19916;-66
2023/08/28 11:11:46;;;;;;;;;;;;;;;31.37;29.66;99786.44;5073852;28;19913;-66
2023/08/28 11:14:13;;;;;;;;;;;;;;;31.36;30.39;99785.63;5073949;28;19917;-66
2023/08/28 11:16:41;;;;;;;;;;;;;;;31.26;27.50;99791.69;5073708;28;19913;-66
2023/08/28 11:19:07;;;;;;;;;;;;;;;31.19;28.41;99792.25;5073966;28;20260;-66
2023/08/28 11:21:44;;;;;;;;;;;;;;;31.36;28.71;99785.63;5073618;28;19921;-66
2023/08/28 11:24:17;;;;;;;;;;;;;;;31.67;29.52;99789.75;5073492;28;20357;-66
2023/08/28 11:26:43;;;;;;;;;;;;;;;31.94;29.96;99782.53;5053658;28;19924;-66
2023/08/28 11:29:24;;;;;;;;;;;;;;;32.01;27.98;99776.38;5061128;28;20300;-66
2023/08/28 11:31:49;;;;;;;;;;;;;;;31.97;27.75;99786.59;5073072;28;19917;-66
2023/08/28 11:34:15;;;;;;;;;;;;;;;32.04;29.77;99786.81;5072864;28;20426;-66
2023/08/28 11:36:40;;;;;;;;;;;;;;;32.09;28.06;99778.22;5073225;28;20102;-66
2023/08/28 11:39:05;;;;;;;;;;;;;;;32.17;30.67;99785.59;5073241;28;19916;-67
2023/08/28 11:41:31;;;;;;;;;;;;;;;32.41;27.46;99775.47;5072960;28;19949;-67
2023/08/28 11:43:56;;;;;;;;;;;;;;;32.58;29.01;99779.91;5055624;28;20335;-64
2023/08/28 11:46:24;;;;;;;;;;;;;;;32.54;27.65;99788.13;5072936;28;19916;-64
2023/08/28 11:48:49;;;;;;;;;;;;;;;32.88;28.82;99782.22;5073288;28;19912;-65
2023/08/28 11:51:15;;;;;;;;;;;;;;;32.89;27.58;99781.03;5073068;28;19913;-65
2023/08/28 11:53:41;;;;;;;;;;;;;;;33.04;28.47;99771.84;5072205;28;19916;-64
2023/08/28 11:56:10;;;;;;;;;;;;;;;33.30;29.81;99781.56;5073157;28;19912;-67
2023/08/28 11:58:38;;;;;;;;;;;;;;;33.45;27.52;99777.13;5072985;28;20003;-65
2023/08/28 12:01:08;;;;;;;;;;;;;;;33.53;26.69;99782.47;5072835;28;20347;-65
2023/08/28 12:03:33;;;;;;;;;;;;;;;33.61;26.33;99775.06;5052821;28;19928;-65
2023/08/28 12:06:04;;;;;;;;;;;;;;;33.80;27.31;99779.06;5053135;28;19913;-65
2023/08/28 12:08:29;;;;;;;;;;;;;;;34.05;27.35;99779.56;5034964;28;20373;-65
2023/08/28 12:10:55;;;;;;;;;;;;;;;34.35;26.64;99776.13;5052607;28;19920;-65
2023/08/28 12:13:20;;;;;;;;;;;;;;;34.62;26.65;99775.00;5052567;28;20344;-65
2023/08/28 12:15:45;;;;;;;;;;;;;;;34.88;24.38;99779.81;5052868;28;19912;-65
2023/08/28 12:18:11;;;;;;;;;;;;;;;35.37;27.15;99775.34;5051840;28;20148;-65
2023/08/28 12:20:37;;;;;;;;;;;;;;;35.82;26.82;99779.09;5053702;28;19956;-65
2023/08/28 12:23:04;;;;;;;;;;;;;;;36.06;23.79;99760.19;5072616;28;19923;-65
2023/08/28 12:25:30;;;;;;;;;;;;;;;35.94;23.98;99771.63;5072183;28;19916;-65
2023/08/28 12:28:02;;;;;;;;;;;;;;;35.71;25.06;99769.78;5072146;28;19963;-65
2023/08/28 12:30:28;;;;;;;;;;;;;;;35.63;24.04;99779.25;5072306;28;19912;-65
2023/08/28 12:32:54;;;;;;;;;;;;;;;35.44;25.21;99771.84;5072623;28;20303;-65
2023/08/28 12:35:20;;;;;;;;;;;;;;;35.25;23.93;99769.97;5072451;28;19952;-65
2023/08/28 12:37:51;;;;;;;;;;;;;;;34.78;25.47;99765.69;5072535;28;19912;-65
2023/08/28 12:40:17;;;;;;;;;;;;;;;34.76;24.54;99768.06;5072187;28;19939;-65
2023/08/28 12:42:42;;;;;;;;;;;;;;;34.54;24.03;99755.72;5072327;28;19916;-65